createdAt,value
2022-08-07T00:02:46.877Z,24.34
2022-08-07T00:05:54.117Z,24.42
2022-08-07T00:09:00.109Z,24.45
2022-08-07T00:12:22.321Z,24.45
2022-08-07T00:15:38.455Z,24.48
2022-08-07T00:18:53.055Z,24.39
2022-08-07T00:22:02.365Z,24.56
2022-08-07T00:25:15.731Z,24.64
2022-08-07T00:28:23.032Z,24.55
2022-08-07T00:31:41.512Z,24.62
2022-08-07T00:34:50.708Z,24.56
2022-08-07T00:37:56.626Z,24.53
2022-08-07T00:41:04.299Z,24.69
2022-08-07T00:44:15.502Z,24.63
2022-08-07T00:48:08.187Z,24.59
2022-08-07T00:50:51.288Z,24.36
2022-08-07T00:53:57.728Z,24.52
2022-08-07T00:57:03.386Z,24.50
2022-08-07T01:00:10.126Z,24.28
2022-08-07T01:03:17.386Z,23.99
2022-08-07T01:06:24.270Z,23.79
2022-08-07T01:10:04.756Z,23.82
2022-08-07T01:12:55.994Z,23.58
2022-08-07T01:16:08.416Z,23.20
2022-08-07T01:19:18.870Z,23.58
2022-08-07T01:22:29.420Z,23.50
2022-08-07T01:25:54.328Z,23.46
2022-08-07T01:29:03.315Z,23.08
2022-08-07T01:32:12.559Z,23.43
2022-08-07T01:35:24.395Z,23.41
2022-08-07T01:38:32.697Z,23.37
2022-08-07T01:42:01.676Z,23.53
2022-08-07T01:45:18.375Z,23.24
2022-08-07T01:48:35.005Z,23.18
2022-08-07T01:52:03.435Z,23.25
2022-08-07T01:55:22.348Z,23.02
2022-08-07T01:58:37.551Z,23.15
2022-08-07T02:02:02.741Z,23.11
2022-08-07T02:05:42.811Z,23.20
2022-08-07T02:08:54.319Z,23.27
2022-08-07T02:12:17.958Z,23.32
2022-08-07T02:15:43.895Z,23.04
2022-08-07T02:18:51.178Z,23.19
2022-08-07T02:22:00.008Z,23.06
2022-08-07T02:25:13.802Z,22.94
2022-08-07T02:28:29.943Z,22.73
2022-08-07T02:31:41.186Z,22.54
2022-08-07T02:34:51.272Z,22.73
2022-08-07T02:38:04.324Z,22.55
2022-08-07T02:41:13.944Z,22.61
2022-08-07T02:44:34.732Z,22.64
2022-08-07T02:47:44.989Z,22.63
2022-08-07T02:50:57.738Z,22.47
2022-08-07T02:54:09.981Z,22.55
2022-08-07T02:57:22.227Z,22.60
2022-08-07T03:00:30.589Z,22.51
2022-08-07T03:03:49.093Z,22.53
2022-08-07T03:07:10.407Z,22.24
2022-08-07T03:10:19.950Z,22.33
2022-08-07T03:13:30.374Z,22.23
2022-08-07T03:16:47.700Z,22.41
2022-08-07T03:19:55.549Z,22.37
2022-08-07T03:23:06.423Z,22.35
2022-08-07T03:26:30.282Z,22.28
2022-08-07T03:29:46.139Z,22.34
2022-08-07T03:33:00.888Z,22.37
2022-08-07T03:36:15.081Z,22.40
2022-08-07T03:39:59.421Z,22.28
2022-08-07T03:42:52.457Z,22.34
2022-08-07T03:46:00.651Z,22.28
2022-08-07T03:49:10.183Z,22.32
2022-08-07T03:52:27.468Z,22.33
2022-08-07T03:55:58.328Z,22.32
2022-08-07T03:59:09.858Z,22.48
2022-08-07T04:02:20.957Z,22.47
2022-08-07T04:05:39.198Z,22.73
2022-08-07T04:08:52.338Z,22.77
2022-08-07T04:12:23.691Z,22.76
2022-08-07T04:15:27.668Z,22.78
2022-08-07T04:18:59.146Z,22.79
2022-08-07T04:22:14.488Z,22.86
2022-08-07T04:25:24.242Z,22.94
2022-08-07T04:28:36.796Z,23.07
2022-08-07T04:32:03.374Z,23.01
2022-08-07T04:35:11.377Z,22.85
2022-08-07T04:38:19.504Z,22.88
2022-08-07T04:41:27.282Z,22.46
2022-08-07T04:44:35.730Z,22.69
2022-08-07T04:48:04.679Z,22.88
2022-08-07T04:51:35.745Z,22.33
2022-08-07T04:55:02.237Z,22.55
2022-08-07T05:02:20.705Z,22.80
2022-08-07T05:05:52.888Z,22.77
2022-08-07T05:09:43.001Z,22.83
2022-08-07T05:13:09.880Z,22.38
2022-08-07T05:16:31.746Z,21.91
2022-08-07T05:19:48.851Z,21.82
2022-08-07T05:22:59.920Z,21.86
2022-08-07T05:26:18.725Z,21.62
2022-08-07T05:29:52.234Z,21.25
2022-08-07T05:33:04.114Z,21.06
2022-08-07T05:36:12.044Z,21.05
2022-08-07T05:40:05.360Z,20.84
2022-08-07T05:42:56.013Z,20.94
2022-08-07T05:46:04.885Z,20.80
2022-08-07T05:49:13.117Z,20.60
2022-08-07T05:52:32.496Z,20.77
2022-08-07T05:56:03.851Z,20.57
2022-08-07T05:59:15.533Z,20.69
2022-08-07T06:02:29.197Z,20.74
2022-08-07T06:05:37.227Z,20.69
2022-08-07T06:08:48.120Z,20.13
2022-08-07T06:11:58.908Z,20.30
2022-08-07T06:15:07.505Z,20.27
2022-08-07T06:18:14.355Z,20.42
2022-08-07T06:23:02.416Z,20.37
2022-08-07T06:26:22.224Z,20.70
2022-08-07T06:29:38.870Z,20.68
2022-08-07T06:32:46.735Z,20.68
2022-08-07T06:36:12.428Z,20.82
2022-08-07T06:40:15.611Z,20.82
2022-08-07T06:42:53.114Z,20.76
2022-08-07T06:46:20.412Z,20.99
2022-08-07T06:49:51.117Z,21.05
2022-08-07T06:53:04.079Z,20.99
2022-08-07T06:56:15.971Z,20.79
2022-08-07T07:00:13.580Z,20.91
2022-08-07T07:03:00.989Z,20.97
2022-08-07T07:06:11.211Z,20.76
2022-08-07T07:09:26.078Z,20.54
2022-08-07T07:12:56.189Z,20.61
2022-08-07T07:16:06.888Z,20.54
2022-08-07T07:19:56.579Z,20.69
2022-08-07T07:24:06.273Z,20.94
2022-08-07T07:26:32.927Z,20.98
2022-08-07T07:29:57.172Z,20.77
2022-08-07T07:33:14.422Z,20.82
2022-08-07T07:36:24.828Z,20.89
2022-08-07T07:39:45.772Z,20.88
2022-08-07T07:43:15.107Z,20.92
2022-08-07T07:46:36.868Z,21.05
2022-08-07T07:50:33.756Z,21.04
2022-08-07T07:53:25.763Z,20.99
2022-08-07T07:56:33.865Z,21.04
2022-08-07T07:59:52.030Z,21.27
2022-08-07T08:03:16.529Z,21.06
2022-08-07T08:06:26.362Z,21.15
2022-08-07T08:13:02.850Z,21.28
2022-08-07T08:16:12.756Z,21.37
2022-08-07T08:20:22.332Z,21.33
2022-08-07T08:23:14.701Z,21.47
2022-08-07T08:26:39.608Z,21.56
2022-08-07T08:29:54.607Z,21.29
2022-08-07T08:33:05.859Z,21.54
2022-08-07T08:36:25.645Z,21.39
2022-08-07T08:39:39.339Z,21.25
2022-08-07T08:43:16.755Z,21.26
2022-08-07T08:46:34.668Z,21.47
2022-08-07T08:50:34.723Z,21.63
2022-08-07T08:53:58.308Z,21.63
2022-08-07T08:57:14.545Z,21.78
2022-08-07T09:00:24.519Z,21.65
2022-08-07T09:03:52.702Z,21.54
2022-08-07T09:07:33.582Z,21.63
2022-08-07T09:11:14.104Z,21.56
2022-08-07T09:16:22.942Z,21.70
2022-08-07T09:18:36.657Z,21.66
2022-08-07T09:22:09.965Z,21.71
2022-08-07T09:25:21.792Z,21.81
2022-08-07T09:30:01.071Z,21.88
2022-08-07T09:32:51.213Z,21.84
2022-08-07T09:36:20.995Z,21.83
2022-08-07T09:39:53.769Z,21.96
2022-08-07T09:44:03.611Z,22.09
2022-08-07T09:47:57.800Z,22.12
2022-08-07T09:50:59.522Z,21.89
2022-08-07T09:54:11.612Z,21.96
2022-08-07T09:57:54.659Z,22.14
2022-08-07T10:01:52.052Z,22.08
2022-08-07T10:05:59.419Z,22.38
2022-08-07T10:09:23.629Z,22.57
2022-08-07T10:12:53.543Z,22.50
2022-08-07T10:16:21.182Z,22.67
2022-08-07T10:20:00.490Z,22.79
2022-08-07T10:24:05.251Z,22.72
2022-08-07T10:27:45.779Z,22.98
2022-08-07T10:31:31.476Z,23.25
2022-08-07T10:34:58.384Z,23.22
2022-08-07T10:38:42.061Z,23.32
2022-08-07T10:42:21.062Z,23.48
2022-08-07T10:45:57.764Z,23.54
2022-08-07T10:49:49.520Z,23.83
2022-08-07T10:53:21.624Z,23.84
2022-08-07T10:56:47.026Z,23.89
2022-08-07T11:00:36.381Z,23.99
2022-08-07T11:03:54.974Z,24.09
2022-08-07T11:08:00.285Z,24.29
2022-08-07T11:11:24.621Z,24.53
2022-08-07T11:15:00.277Z,24.78
2022-08-07T11:18:37.289Z,24.85
2022-08-07T11:21:54.916Z,24.86
2022-08-07T11:25:31.234Z,24.71
2022-08-07T11:28:53.426Z,24.76
2022-08-07T11:32:31.063Z,24.83
2022-08-07T11:36:30.627Z,25.06
2022-08-07T11:40:00.102Z,25.02
2022-08-07T11:43:18.856Z,25.16
2022-08-07T11:46:45.033Z,25.29
2022-08-07T11:50:31.790Z,25.45
2022-08-07T11:54:01.708Z,25.31
2022-08-07T11:57:19.664Z,25.45
2022-08-07T12:01:05.278Z,25.47
2022-08-07T12:04:35.887Z,25.66
2022-08-07T12:07:53.696Z,25.46
2022-08-07T12:11:32.585Z,25.59
2022-08-07T12:14:55.625Z,25.69
2022-08-07T12:18:16.144Z,25.55
2022-08-07T12:22:36.171Z,25.73
2022-08-07T12:26:05.351Z,25.80
2022-08-07T12:29:51.773Z,25.90
2022-08-07T12:33:14.595Z,25.76
2022-08-07T12:36:32.902Z,25.75
2022-08-07T12:39:51.103Z,25.80
2022-08-07T12:43:01.131Z,25.74
2022-08-07T12:46:26.282Z,26.36
2022-08-07T12:49:53.033Z,26.32
2022-08-07T12:53:18.604Z,26.64
2022-08-07T12:56:36.885Z,26.79
2022-08-07T12:59:55.462Z,26.85
2022-08-07T13:03:59.315Z,26.64
2022-08-07T13:08:12.712Z,26.16
2022-08-07T13:11:03.064Z,26.51
2022-08-07T13:14:29.146Z,26.86
2022-08-07T13:17:46.849Z,27.02
2022-08-07T13:20:59.870Z,26.91
2022-08-07T13:24:31.044Z,26.80
2022-08-07T13:28:10.597Z,27.19
2022-08-07T13:31:54.920Z,27.42
2022-08-07T13:35:08.413Z,27.05
2022-08-07T13:38:20.454Z,27.21
2022-08-07T13:41:47.555Z,26.94
2022-08-07T13:45:20.592Z,27.47
2022-08-07T13:48:27.834Z,27.46
2022-08-07T13:52:19.028Z,27.30
2022-08-07T13:55:26.502Z,27.57
2022-08-07T13:58:58.496Z,27.70
2022-08-07T14:02:10.386Z,27.81
2022-08-07T14:05:22.479Z,27.68
2022-08-07T14:08:29.905Z,27.80
2022-08-07T14:12:01.133Z,27.89
2022-08-07T14:15:32.015Z,27.82
2022-08-07T14:18:49.962Z,27.64
2022-08-07T14:22:10.750Z,27.76
2022-08-07T14:25:25.033Z,27.96
2022-08-07T14:28:57.520Z,28.10
2022-08-07T14:32:09.829Z,28.12
2022-08-07T14:35:44.956Z,28.22
2022-08-07T14:38:53.164Z,28.01
2022-08-07T14:42:19.758Z,27.98
2022-08-07T14:45:46.037Z,28.17
2022-08-07T14:48:58.048Z,27.99
2022-08-07T14:52:10.492Z,28.27
2022-08-07T14:55:17.642Z,28.34
2022-08-07T14:58:27.965Z,28.47
2022-08-07T15:01:50.970Z,28.42
2022-08-07T15:04:57.923Z,28.50
2022-08-07T15:08:12.616Z,28.38
2022-08-07T15:14:58.177Z,28.72
2022-08-07T15:18:14.250Z,28.84
2022-08-07T15:21:44.948Z,28.83
2022-08-07T15:28:45.018Z,28.99
2022-08-07T15:32:02.815Z,28.75
2022-08-07T15:36:00.689Z,28.50
2022-08-07T15:38:51.345Z,28.70
2022-08-07T15:42:43.316Z,28.80
2022-08-07T15:45:55.923Z,28.87
2022-08-07T15:52:36.991Z,29.03
2022-08-07T15:56:02.355Z,28.89
2022-08-07T15:59:17.403Z,29.04
2022-08-07T16:02:27.008Z,29.10
2022-08-07T16:05:36.124Z,29.13
2022-08-07T16:08:45.587Z,29.06
2022-08-07T16:12:05.587Z,28.87
2022-08-07T16:15:57.738Z,28.52
2022-08-07T16:19:43.176Z,28.56
2022-08-07T16:23:53.496Z,28.37
2022-08-07T16:27:17.967Z,28.47
2022-08-07T16:30:30.903Z,28.55
2022-08-07T16:34:02.896Z,28.50
2022-08-07T16:38:06.092Z,28.74
2022-08-07T16:41:53.948Z,28.60
2022-08-07T16:46:34.669Z,28.36
2022-08-07T16:50:27.052Z,28.12
2022-08-07T16:53:09.858Z,28.31
2022-08-07T16:56:49.782Z,28.39
2022-08-07T17:00:03.234Z,28.34
2022-08-07T17:03:17.081Z,28.42
2022-08-07T17:07:03.473Z,28.50
2022-08-07T17:10:30.393Z,28.31
2022-08-07T17:14:18.013Z,27.95
2022-08-07T17:17:45.973Z,27.87
2022-08-07T17:20:54.791Z,27.61
2022-08-07T17:24:32.036Z,27.42
2022-08-07T17:28:20.168Z,27.43
2022-08-07T17:31:44.067Z,27.44
2022-08-07T17:35:32.934Z,27.17
2022-08-07T17:38:35.177Z,27.06
2022-08-07T17:42:01.979Z,27.04
2022-08-07T17:45:18.033Z,27.05
2022-08-07T17:48:34.494Z,27.05
2022-08-07T17:52:19.446Z,26.92
2022-08-07T17:56:01.271Z,26.90
2022-08-07T17:59:21.559Z,26.75
2022-08-07T18:02:56.379Z,26.75
2022-08-07T18:06:10.365Z,26.70
2022-08-07T18:09:48.374Z,26.63
2022-08-07T18:13:09.799Z,26.50
2022-08-07T18:16:33.181Z,26.44
2022-08-07T18:21:08.229Z,26.28
2022-08-07T18:23:42.301Z,26.06
2022-08-07T18:27:25.246Z,25.83
2022-08-07T18:31:12.252Z,25.90
2022-08-07T18:35:01.389Z,25.70
2022-08-07T18:38:56.297Z,25.52
2022-08-07T18:41:53.064Z,25.49
2022-08-07T18:45:40.218Z,25.43
2022-08-07T18:50:35.236Z,25.62
2022-08-07T18:52:53.198Z,25.55
2022-08-07T18:56:35.499Z,25.35
2022-08-07T19:00:34.199Z,25.34
2022-08-07T19:03:40.578Z,25.45
2022-08-07T19:06:56.807Z,25.29
2022-08-07T19:10:10.953Z,25.36
2022-08-07T19:13:43.894Z,25.23
2022-08-07T19:17:05.760Z,25.14
2022-08-07T19:20:30.246Z,25.24
2022-08-07T19:23:59.111Z,25.20
2022-08-07T19:28:30.086Z,25.05
2022-08-07T19:31:05.751Z,24.98
2022-08-07T19:34:06.117Z,25.10
2022-08-07T19:37:17.587Z,24.98
2022-08-07T19:40:31.570Z,25.10
2022-08-07T19:43:51.912Z,25.08
2022-08-07T19:47:10.885Z,24.97
2022-08-07T19:50:42.999Z,24.99
2022-08-07T19:54:44.409Z,24.85
2022-08-07T19:58:00.143Z,24.76
2022-08-07T20:00:55.480Z,24.68
2022-08-07T20:04:01.894Z,24.70
2022-08-07T20:07:10.641Z,24.70
2022-08-07T20:10:38.221Z,24.73
2022-08-07T20:13:57.489Z,24.60
2022-08-07T20:17:06.712Z,24.65
2022-08-07T20:20:15.417Z,24.57
2022-08-07T20:23:41.768Z,24.57
2022-08-07T20:26:52.368Z,24.46
2022-08-07T20:30:05.960Z,24.38
2022-08-07T20:33:24.373Z,24.37
2022-08-07T20:36:51.746Z,24.35
2022-08-07T20:40:03.805Z,24.36
2022-08-07T20:43:19.344Z,24.11
2022-08-07T20:46:34.583Z,24.05
2022-08-07T20:49:57.966Z,24.08
2022-08-07T20:53:16.112Z,24.00
2022-08-07T20:56:41.761Z,24.01
2022-08-07T21:00:06.529Z,24.10
2022-08-07T21:03:25.525Z,24.01
2022-08-07T21:06:34.053Z,23.99
2022-08-07T21:09:53.104Z,23.95
2022-08-07T21:13:12.075Z,23.83
2022-08-07T21:16:20.656Z,23.81
2022-08-07T21:19:51.647Z,23.99
2022-08-07T21:23:07.611Z,24.03
2022-08-07T21:26:42.847Z,23.75
2022-08-07T21:29:54.463Z,23.58
2022-08-07T21:33:29.359Z,23.72
2022-08-07T21:37:04.703Z,23.70
2022-08-07T21:40:35.667Z,23.85
2022-08-07T21:43:56.726Z,23.66
2022-08-07T21:47:12.443Z,23.65
2022-08-07T21:50:28.200Z,23.52
2022-08-07T21:53:46.500Z,23.54
2022-08-07T21:57:01.549Z,23.47
2022-08-07T22:00:23.110Z,23.47
2022-08-07T22:04:02.507Z,23.36
2022-08-07T22:07:16.462Z,23.49
2022-08-07T22:10:26.167Z,23.48
2022-08-07T22:13:51.865Z,23.52
2022-08-07T22:17:05.933Z,23.54
2022-08-07T22:20:34.291Z,23.60
2022-08-07T22:23:58.114Z,23.56
2022-08-07T22:27:21.146Z,23.40
2022-08-07T22:31:09.874Z,23.43
2022-08-07T22:34:31.701Z,23.52
2022-08-07T22:38:01.947Z,23.55
2022-08-07T22:41:29.162Z,23.56
2022-08-07T22:44:59.094Z,23.44
2022-08-07T22:48:31.361Z,23.26
2022-08-07T22:51:54.165Z,23.39
2022-08-07T22:55:29.783Z,23.36
2022-08-07T22:59:11.286Z,23.19
2022-08-07T23:02:35.224Z,23.31
2022-08-07T23:06:15.366Z,23.34
2022-08-07T23:10:03.847Z,23.27
2022-08-07T23:14:08.798Z,23.25
2022-08-07T23:17:35.931Z,23.34
2022-08-07T23:21:04.853Z,23.40
2022-08-07T23:24:35.118Z,23.29
2022-08-07T23:28:21.051Z,23.23
2022-08-07T23:32:49.492Z,23.15
2022-08-07T23:34:56.295Z,23.04
2022-08-07T23:38:19.267Z,23.24
2022-08-07T23:42:04.441Z,23.07
2022-08-07T23:46:01.357Z,23.23
2022-08-07T23:49:15.401Z,23.21
2022-08-07T23:53:16.846Z,23.00
2022-08-07T23:56:54.093Z,22.98
